Time;durP1;ratioP1;P1;durP2;ratioP2;P2;SDS_P1;SDS_P2;PMS_P1;PMS_P2;Temp;Humidity;BMP_temperature;BMP_pressure;BME280_temperature;BME280_humidity;BME280_pressure;Samples;Min_cycle;Max_cycle;Signal;HPM_P1;HPM_P2
2022/03/19 00:00:51;;;;;;;35.17;24.10;;;;;;;8.31;45.35;97313.97;4935044;29;20428;-69
2022/03/19 00:03:18;;;;;;;35.35;25.75;;;;;;;7.99;45.60;97310.94;4935012;29;20024;-70
2022/03/19 00:05:44;;;;;;;35.38;24.88;;;;;;;8.14;46.42;97335.13;4936166;29;20496;-70
2022/03/19 00:08:10;;;;;;;33.80;25.48;;;;;;;8.72;44.78;97358.00;4936093;29;20031;-70
2022/03/19 00:10:35;;;;;;;35.45;24.63;;;;;;;7.95;45.99;97313.25;4935718;29;20027;-70
2022/03/19 00:13:00;;;;;;;37.70;25.83;;;;;;;8.46;44.85;97305.53;4935758;29;20115;-71
2022/03/19 00:15:26;;;;;;;37.05;26.25;;;;;;;8.21;45.70;97325.19;4936043;29;20028;-71
2022/03/19 00:17:56;;;;;;;41.30;26.88;;;;;;;8.76;45.27;97350.38;4934753;29;20019;-70
2022/03/19 00:20:21;;;;;;;36.08;25.88;;;;;;;8.56;44.72;97306.53;4935616;29;20031;-71
2022/03/19 00:22:47;;;;;;;36.92;26.52;;;;;;;8.49;45.48;97363.41;4934297;29;20020;-70
2022/03/19 00:25:13;;;;;;;44.70;28.05;;;;;;;8.55;44.72;97298.81;4934597;29;20039;-70
2022/03/19 00:27:42;;;;;;;38.53;26.77;;;;;;;7.87;45.10;97214.75;4934691;29;20024;-69
2022/03/19 00:30:08;;;;;;;39.78;26.27;;;;;;;8.70;45.37;97362.75;4935502;29;20023;-71
2022/03/19 00:32:34;;;;;;;35.85;26.20;;;;;;;8.71;45.10;97345.78;4935490;29;20030;-69
2022/03/19 00:35:00;;;;;;;38.75;26.95;;;;;;;8.56;45.56;97358.78;4935672;29;20043;-71
2022/03/19 00:37:26;;;;;;;40.55;26.83;;;;;;;8.56;45.29;97338.34;4935596;29;20036;-70
2022/03/19 00:39:51;;;;;;;42.25;28.33;;;;;;;8.68;44.77;97301.16;4935367;29;20473;-69
2022/03/19 00:42:16;;;;;;;39.65;26.98;;;;;;;8.35;45.77;97312.47;4935045;29;20165;-69
2022/03/19 00:44:43;;;;;;;42.47;27.48;;;;;;;8.74;45.35;97347.16;4934650;29;20438;-69
2022/03/19 00:47:08;;;;;;;43.20;27.98;;;;;;;7.90;45.75;97267.31;4935374;29;20079;-70
2022/03/19 00:49:34;;;;;;;43.53;28.10;;;;;;;8.72;44.77;97320.06;4934230;29;20023;-69
2022/03/19 00:51:59;;;;;;;42.38;29.15;;;;;;;8.24;47.32;97339.78;4935252;29;20035;-70
2022/03/19 00:54:25;;;;;;;46.28;30.17;;;;;;;8.49;46.08;97326.25;4935414;29;20048;-70
2022/03/19 00:56:50;;;;;;;42.95;29.65;;;;;;;7.77;46.75;97290.34;4935211;29;20032;-70
2022/03/19 00:59:16;;;;;;;45.55;31.40;;;;;;;8.16;46.75;97303.06;4935004;29;20034;-69
2022/03/19 01:01:41;;;;;;;44.83;30.40;;;;;;;7.90;48.24;97322.94;4935127;29;20465;-70
2022/03/19 01:04:06;;;;;;;45.20;30.17;;;;;;;8.11;46.94;97300.31;4933998;29;20090;-70
2022/03/19 01:06:32;;;;;;;48.25;32.08;;;;;;;8.13;46.91;97277.81;4935373;29;20373;-69
2022/03/19 01:08:57;;;;;;;49.40;34.05;;;;;;;7.86;47.47;97280.19;4934683;29;20100;-70
2022/03/19 01:11:23;;;;;;;56.30;33.92;;;;;;;7.73;48.01;97299.81;4934850;29;20111;-69
2022/03/19 01:13:55;;;;;;;58.70;36.15;;;;;;;8.40;47.32;97331.16;4917987;29;20123;-70
2022/03/19 01:16:21;;;;;;;56.00;35.47;;;;;;;8.22;47.19;97300.28;4934903;29;20023;-69
2022/03/19 01:18:47;;;;;;;54.03;35.67;;;;;;;8.21;47.32;97282.75;4934724;29;20524;-69
2022/03/19 01:21:13;;;;;;;57.65;36.33;;;;;;;8.10;47.22;97288.91;4934677;29;20035;-70
2022/03/19 01:23:38;;;;;;;58.20;37.33;;;;;;;7.88;48.10;97266.72;4934790;29;20028;-70
2022/03/19 01:26:04;;;;;;;58.47;37.45;;;;;;;8.26;47.65;97303.25;4934726;29;20477;-69
2022/03/19 01:28:29;;;;;;;58.47;37.20;;;;;;;7.96;48.75;97283.06;4917414;29;20077;-69
2022/03/19 01:30:54;;;;;;;57.17;37.35;;;;;;;8.06;47.91;97277.16;4933073;29;20106;-70
2022/03/19 01:33:20;;;;;;;59.15;38.55;;;;;;;8.19;48.75;97298.09;4934640;29;20377;-69
2022/03/19 01:35:45;;;;;;;65.57;39.30;;;;;;;8.04;48.41;97263.34;4934615;29;20465;-69
2022/03/19 01:38:10;;;;;;;60.95;38.88;;;;;;;7.69;49.40;97232.44;4934645;29;20039;-70
2022/03/19 01:40:36;;;;;;;65.20;39.92;;;;;;;7.80;49.86;97281.94;4933044;29;20388;-69
2022/03/19 01:43:02;;;;;;;60.90;38.65;;;;;;;8.00;48.78;97270.97;4933445;29;20120;-69
2022/03/19 01:45:28;;;;;;;69.32;40.83;;;;;;;7.82;49.37;97271.09;4917591;29;20119;-69
2022/03/19 01:47:54;;;;;;;65.60;40.47;;;;;;;8.13;48.81;97275.16;4934645;29;20111;-70
2022/03/19 01:50:21;;;;;;;68.30;40.35;;;;;;;7.85;49.84;97275.94;4934226;29;20121;-69
2022/03/19 01:52:47;;;;;;;71.22;43.17;;;;;;;7.60;48.76;97188.81;4934389;29;20032;-69
2022/03/19 01:55:15;;;;;;;66.90;42.55;;;;;;;8.00;49.82;97273.59;4932761;29;20055;-69
2022/03/19 01:57:44;;;;;;;66.65;42.15;;;;;;;7.52;50.15;97220.94;4934422;29;20046;-68
2022/03/19 02:00:13;;;;;;;70.20;42.13;;;;;;;7.96;49.59;97269.00;4934021;29;20067;-68
2022/03/19 02:02:39;;;;;;;73.18;44.00;;;;;;;7.54;49.72;97200.34;4934370;29;20408;-70
2022/03/19 02:05:06;;;;;;;73.25;44.80;;;;;;;7.90;50.15;97268.09;4934641;29;20028;-69
2022/03/19 02:07:32;;;;;;;77.40;46.05;;;;;;;8.00;50.14;97270.97;4934368;29;20079;-69
2022/03/19 02:09:58;;;;;;;77.57;47.30;;;;;;;7.07;51.46;97215.50;4934130;29;20027;-69
2022/03/19 02:12:24;;;;;;;83.07;48.03;;;;;;;7.37;51.33;97215.34;4934145;29;20039;-70
2022/03/19 02:14:50;;;;;;;79.35;47.30;;;;;;;7.50;51.48;97237.06;4932959;29;20032;-69
2022/03/19 02:17:15;;;;;;;88.78;47.97;;;;;;;7.37;51.61;97226.75;4933131;29;20047;-69
2022/03/19 02:19:49;;;;;;;84.10;49.75;;;;;;;7.74;51.40;97252.94;4916855;29;20034;-69
2022/03/19 02:22:16;;;;;;;86.28;48.95;;;;;;;7.60;51.02;97220.59;4932673;29;20023;-70
2022/03/19 02:27:25;;;;;;;92.88;51.28;;;;;;;6.95;50.90;97117.56;4934228;29;20031;-69
2022/03/19 02:29:52;;;;;;;85.55;50.10;;;;;;;7.78;51.35;97264.69;4932871;29;20020;-69
2022/03/19 02:32:17;;;;;;;89.07;53.10;;;;;;;7.79;51.44;97250.41;4934115;29;20020;-70
2022/03/19 02:34:43;;;;;;;93.07;54.42;;;;;;;7.56;51.35;97208.84;4934242;29;20083;-69
2022/03/19 02:37:08;;;;;;;95.82;54.55;;;;;;;7.78;50.66;97227.59;4932837;29;20074;-69
2022/03/19 02:39:34;;;;;;;94.82;55.05;;;;;;;7.70;51.02;97233.25;4933844;29;20039;-69
2022/03/19 02:42:07;;;;;;;92.68;53.72;;;;;;;7.68;50.79;97207.00;4934031;29;20543;-70
2022/03/19 02:44:34;;;;;;;105.10;55.67;;;;;;;8.01;50.52;97261.97;4916992;29;20032;-69
2022/03/19 02:47:02;;;;;;;104.63;57.10;;;;;;;7.91;50.57;97245.88;4916871;29;20039;-69
2022/03/19 02:49:28;;;;;;;101.50;57.50;;;;;;;7.41;51.41;97197.94;4933613;29;20090;-70
2022/03/19 02:51:54;;;;;;;104.85;58.63;;;;;;;7.42;53.04;97257.81;4933733;29;20466;-69
2022/03/19 02:54:22;;;;;;;112.68;62.88;;;;;;;7.52;53.01;97255.38;4933882;29;20031;-70
2022/03/19 02:56:48;;;;;;;108.40;61.50;;;;;;;7.29;53.08;97197.97;4933926;29;20032;-70
2022/03/19 02:59:21;;;;;;;114.70;64.80;;;;;;;7.61;52.78;97253.97;4932357;29;20086;-70
2022/03/19 03:01:50;;;;;;;115.10;62.30;;;;;;;7.77;52.41;97252.47;4932270;29;20429;-70
2022/03/19 03:04:16;;;;;;;109.97;63.83;;;;;;;7.65;51.86;97236.59;4916787;29;20031;-69
2022/03/19 03:06:45;;;;;;;107.55;61.85;;;;;;;7.49;52.41;97203.69;4933536;29;20028;-70
2022/03/19 03:09:11;;;;;;;107.13;60.80;;;;;;;7.61;53.10;97237.28;4935584;29;20429;-70
2022/03/19 03:11:37;;;;;;;113.13;63.50;;;;;;;7.61;52.53;97242.59;4937070;29;20019;-70
2022/03/19 03:14:08;;;;;;;117.32;65.85;;;;;;;7.45;52.01;97207.03;4936995;29;20028;-69
2022/03/19 03:16:34;;;;;;;110.85;63.13;;;;;;;7.44;51.96;97186.91;4937154;29;20477;-71
2022/03/19 03:19:03;;;;;;;121.38;67.38;;;;;;;7.70;52.61;97249.16;4936831;29;20035;-70
2022/03/19 03:21:29;;;;;;;116.50;64.05;;;;;;;7.32;51.86;97186.09;4936983;29;20032;-70
2022/03/19 03:23:55;;;;;;;117.80;63.97;;;;;;;7.44;52.65;97223.97;4935908;29;20381;-71
2022/03/19 03:26:20;;;;;;;120.45;64.50;;;;;;;7.51;52.02;97219.34;4936840;29;20039;-71
2022/03/19 03:28:46;;;;;;;110.95;60.20;;;;;;;7.44;52.90;97235.38;4936692;29;20039;-68
2022/03/19 03:31:11;;;;;;;116.55;63.35;;;;;;;7.13;53.42;97217.22;4936601;29;20028;-68
2022/03/19 03:33:37;;;;;;;112.25;63.65;;;;;;;7.39;52.99;97234.44;4936770;29;20426;-69
2022/03/19 03:36:03;;;;;;;113.35;62.65;;;;;;;7.09;53.92;97214.22;4936626;29;20559;-71
2022/03/19 03:38:28;;;;;;;112.72;62.97;;;;;;;7.27;53.82;97237.91;4935095;29;20339;-71
2022/03/19 03:40:53;;;;;;;114.47;65.65;;;;;;;7.29;52.68;97232.38;4936568;29;20023;-71
2022/03/19 03:43:19;;;;;;;115.35;64.07;;;;;;;7.02;53.10;97210.88;4936613;29;20024;-72
2022/03/19 03:45:45;;;;;;;113.35;63.22;;;;;;;6.83;54.67;97233.97;4936519;29;20034;-68
2022/03/19 03:48:10;;;;;;;109.28;60.90;;;;;;;7.06;53.32;97212.00;4936515;29;20028;-69
2022/03/19 03:50:37;;;;;;;115.45;61.55;;;;;;;6.23;52.99;97088.72;4936041;29;20389;-68
2022/03/19 03:53:04;;;;;;;112.53;59.45;;;;;;;6.90;53.20;97200.28;4936535;29;20035;-69
2022/03/19 03:55:30;;;;;;;111.15;61.83;;;;;;;6.68;53.44;97184.19;4936061;29;20031;-70
2022/03/19 03:57:55;;;;;;;113.00;61.65;;;;;;;7.03;53.11;97215.94;4934372;29;20031;-68
2022/03/19 04:00:21;;;;;;;105.57;60.28;;;;;;;5.93;53.18;97083.50;4935963;29;20114;-69
2022/03/19 04:02:46;;;;;;;112.18;59.85;;;;;;;6.74;53.56;97232.69;4936443;29;20038;-69
2022/03/19 04:05:12;;;;;;;110.43;60.85;;;;;;;6.55;53.57;97184.38;4936410;29;20035;-71
2022/03/19 04:07:37;;;;;;;115.45;59.95;;;;;;;6.83;52.50;97193.50;4936082;29;20059;-70
2022/03/19 04:10:03;;;;;;;107.22;59.03;;;;;;;6.78;52.70;97184.41;4934732;29;20358;-70
2022/03/19 04:12:29;;;;;;;113.50;62.67;;;;;;;6.91;52.49;97185.22;4935919;29;20098;-70
2022/03/19 04:14:54;;;;;;;105.03;58.42;;;;;;;6.72;53.48;97193.28;4936039;29;20030;-70
2022/03/19 04:17:20;;;;;;;114.25;59.65;;;;;;;6.92;53.12;97206.16;4935851;29;20027;-70
2022/03/19 04:19:46;;;;;;;114.97;59.65;;;;;;;7.08;52.61;97217.09;4935972;29;20489;-69
2022/03/19 04:22:11;;;;;;;109.28;58.65;;;;;;;6.84;52.98;97209.13;4936024;29;20035;-70
2022/03/19 04:24:37;;;;;;;105.57;57.85;;;;;;;6.89;53.08;97205.81;4936222;29;20384;-69
2022/03/19 04:27:03;;;;;;;113.80;60.60;;;;;;;6.93;52.85;97213.06;4919191;29;20406;-71
2022/03/19 04:29:28;;;;;;;102.70;57.67;;;;;;;6.64;52.42;97171.63;4935525;29;20059;-71
2022/03/19 04:31:54;;;;;;;110.30;59.83;;;;;;;6.68;52.47;97172.78;4935571;29;20032;-70
2022/03/19 04:34:19;;;;;;;105.13;57.38;;;;;;;6.56;53.06;97174.63;4934476;29;20130;-70
2022/03/19 04:36:45;;;;;;;109.45;57.08;;;;;;;6.75;52.71;97179.56;4935685;29;20141;-70
2022/03/19 04:39:10;;;;;;;106.93;56.65;;;;;;;6.40;52.61;97147.81;4934047;29;20023;-70
2022/03/19 04:41:38;;;;;;;103.25;56.13;;;;;;;6.93;52.00;97214.91;4935421;29;20039;-70
2022/03/19 04:44:05;;;;;;;109.82;58.33;;;;;;;7.01;52.09;97222.47;4935544;29;20059;-70
2022/03/19 04:46:30;;;;;;;107.20;58.65;;;;;;;6.47;52.02;97126.56;4918451;29;20062;-70
2022/03/19 04:48:56;;;;;;;112.57;59.25;;;;;;;6.73;51.49;97168.44;4935273;29;20454;-68
2022/03/19 04:51:36;;;;;;;117.97;58.88;;;;;;;6.72;52.01;97176.59;4935245;29;20043;-71
2022/03/19 04:54:02;;;;;;;106.90;58.65;;;;;;;6.95;51.77;97218.91;4935383;29;20028;-70
2022/03/19 04:56:29;;;;;;;110.43;58.60;;;;;;;6.65;52.01;97160.00;4935262;29;20539;-71
2022/03/19 04:58:56;;;;;;;114.22;59.92;;;;;;;6.69;52.08;97172.56;4935105;29;20151;-69
2022/03/19 05:01:26;;;;;;;111.32;58.88;;;;;;;6.71;52.18;97196.94;4935059;29;20028;-68
2022/03/19 05:03:51;;;;;;;110.65;57.70;;;;;;;6.74;52.37;97191.19;4935237;29;20068;-68
2022/03/19 05:06:16;;;;;;;107.68;56.65;;;;;;;6.65;51.81;97184.63;4935034;29;20568;-69
2022/03/19 05:08:42;;;;;;;105.38;57.45;;;;;;;6.71;52.00;97209.38;4933669;29;20027;-69
2022/03/19 05:11:13;;;;;;;114.32;60.28;;;;;;;6.45;52.08;97160.38;4934737;29;20026;-70
2022/03/19 05:13:40;;;;;;;108.28;59.03;;;;;;;6.54;52.69;97187.25;4933895;29;20415;-70
2022/03/19 05:16:06;;;;;;;108.70;57.80;;;;;;;6.26;52.38;97138.50;4934920;29;20366;-70
2022/03/19 05:18:32;;;;;;;104.97;56.72;;;;;;;6.38;52.48;97149.06;4917676;29;20047;-70
2022/03/19 05:20:57;;;;;;;106.22;57.15;;;;;;;6.56;52.03;97188.66;4934757;29;20027;-70
2022/03/19 05:23:23;;;;;;;103.60;54.58;;;;;;;6.42;51.93;97155.53;4933449;29;20032;-69
2022/03/19 05:25:50;;;;;;;99.60;53.45;;;;;;;6.30;52.74;97189.88;4934807;29;20031;-70
2022/03/19 05:28:15;;;;;;;97.72;52.50;;;;;;;6.42;52.07;97171.38;4934868;29;20545;-70
2022/03/19 05:30:41;;;;;;;94.97;51.55;;;;;;;6.56;51.63;97178.06;4933866;29;20027;-70
2022/03/19 05:33:07;;;;;;;92.68;51.45;;;;;;;6.23;52.21;97160.88;4934538;29;20155;-69
2022/03/19 05:35:32;;;;;;;94.07;49.55;;;;;;;6.31;52.23;97158.97;4934720;29;20083;-69
2022/03/19 05:37:59;;;;;;;87.70;45.92;;;;;;;6.35;51.75;97163.56;4933345;29;20028;-70
2022/03/19 05:40:26;;;;;;;85.55;46.75;;;;;;;6.51;51.20;97183.25;4934319;29;20036;-69
2022/03/19 05:42:51;;;;;;;87.70;47.20;;;;;;;6.41;51.56;97190.94;4933188;29;20024;-70
2022/03/19 05:45:19;;;;;;;82.97;46.35;;;;;;;6.73;50.82;97176.34;4917287;29;20358;-70
2022/03/19 05:47:45;;;;;;;87.75;47.53;;;;;;;6.86;50.14;97178.00;4934537;29;20055;-70
2022/03/19 05:50:12;;;;;;;86.72;47.65;;;;;;;6.80;50.29;97164.84;4934262;29;20082;-70
2022/03/19 05:52:38;;;;;;;75.80;44.35;;;;;;;6.88;49.92;97186.50;4934382;29;20039;-70
2022/03/19 05:55:04;;;;;;;79.05;44.60;;;;;;;6.86;49.42;97158.63;4934435;29;20020;-70
2022/03/19 05:57:29;;;;;;;86.10;47.85;;;;;;;6.88;49.55;97159.22;4934355;29;20032;-70
2022/03/19 05:59:55;;;;;;;81.32;45.65;;;;;;;6.92;49.33;97144.50;4934248;29;20039;-70
2022/03/19 06:02:20;;;;;;;82.15;45.35;;;;;;;7.13;49.52;97183.59;4933214;29;20114;-70
2022/03/19 06:04:45;;;;;;;90.45;46.15;;;;;;;6.89;49.32;97144.97;4934316;29;20024;-69
2022/03/19 06:07:11;;;;;;;81.82;44.78;;;;;;;7.18;48.46;97167.03;4934265;29;20028;-69
2022/03/19 06:09:37;;;;;;;78.28;44.13;;;;;;;6.85;49.33;97151.75;4933957;29;20027;-70
2022/03/19 06:12:03;;;;;;;75.20;44.25;;;;;;;7.15;49.11;97180.72;4934224;29;20027;-70
2022/03/19 06:14:28;;;;;;;77.88;44.95;;;;;;;7.09;48.60;97148.06;4933140;29;20441;-70
2022/03/19 06:16:53;;;;;;;76.05;42.97;;;;;;;7.09;48.90;97171.06;4934393;29;20024;-70
2022/03/19 06:19:19;;;;;;;76.82;43.70;;;;;;;7.18;48.03;97148.50;4934325;29;20035;-71
2022/03/19 06:21:44;;;;;;;71.82;41.53;;;;;;;7.37;48.40;97162.38;4933004;29;20485;-71
2022/03/19 06:24:10;;;;;;;72.10;41.17;;;;;;;6.73;48.02;97090.94;4933018;29;20123;-70
2022/03/19 06:26:36;;;;;;;73.40;41.88;;;;;;;7.02;48.14;97142.91;4934214;29;20114;-70
2022/03/19 06:29:02;;;;;;;70.05;42.03;;;;;;;7.14;47.81;97150.81;4932913;29;20035;-71
2022/03/19 06:31:28;;;;;;;74.05;43.03;;;;;;;7.38;47.53;97151.56;4933532;29;20115;-71
2022/03/19 06:33:54;;;;;;;72.20;41.78;;;;;;;7.07;48.30;97122.88;4933937;29;20024;-71
2022/03/19 06:39:04;;;;;;;72.95;40.63;;;;;;;7.13;47.51;97169.56;4934440;29;20083;-70
2022/03/19 06:41:30;;;;;;;72.55;38.08;;;;;;;6.69;47.64;97151.41;4937051;29;20032;-71
2022/03/19 06:43:55;;;;;;;66.88;39.65;;;;;;;7.22;47.05;97166.34;4938970;29;20038;-71
2022/03/19 06:46:21;;;;;;;64.10;38.10;;;;;;;6.75;47.29;97137.25;4938643;29;20028;-70
2022/03/19 06:48:47;;;;;;;68.00;38.13;;;;;;;7.01;46.85;97145.75;4936416;29;20028;-71
2022/03/19 06:51:13;;;;;;;65.50;36.95;;;;;;;7.35;46.74;97133.50;4937495;29;20031;-70
2022/03/19 06:53:39;;;;;;;63.70;37.70;;;;;;;7.04;46.13;97124.13;4937493;29;20024;-70
2022/03/19 06:56:07;;;;;;;60.38;35.75;;;;;;;7.39;45.58;97149.72;4937309;29;20042;-70
2022/03/19 06:58:33;;;;;;;57.55;34.17;;;;;;;7.54;44.72;97161.44;4937083;29;20472;-70
2022/03/19 07:01:00;;;;;;;61.90;36.50;;;;;;;7.12;45.36;97113.19;4920040;29;20028;-69
2022/03/19 07:03:25;;;;;;;65.70;36.90;;;;;;;7.53;44.42;97106.06;4920132;29;20473;-69
2022/03/19 07:05:51;;;;;;;54.65;32.40;;;;;;;6.96;44.78;97084.78;4935930;29;20028;-70
2022/03/19 07:08:16;;;;;;;58.25;33.50;;;;;;;7.07;45.36;97126.31;4935792;29;20524;-70
2022/03/19 07:10:41;;;;;;;55.47;34.15;;;;;;;7.30;44.46;97160.66;4936979;29;20020;-70
2022/03/19 07:13:07;;;;;;;65.68;33.63;;;;;;;7.11;44.58;97121.34;4935786;29;20110;-69
2022/03/19 07:15:32;;;;;;;58.60;34.35;;;;;;;7.11;44.11;97093.03;4937388;29;20362;-70
2022/03/19 07:18:02;;;;;;;59.13;33.05;;;;;;;7.68;44.03;97132.84;4936949;29;20462;-70
2022/03/19 07:20:29;;;;;;;47.55;29.67;;;;;;;7.50;43.26;97125.06;4936656;29;20032;-70
2022/03/19 07:23:01;;;;;;;50.92;30.30;;;;;;;7.43;43.33;97141.09;4936891;29;20028;-70
2022/03/19 07:25:29;;;;;;;50.45;29.35;;;;;;;7.52;42.49;97138.84;4935497;29;20481;-70
2022/03/19 07:27:57;;;;;;;53.15;29.77;;;;;;;7.66;42.67;97136.75;4936707;29;20119;-70
2022/03/19 07:30:23;;;;;;;45.25;27.88;;;;;;;7.52;42.19;97136.22;4936472;29;20024;-70
2022/03/19 07:32:48;;;;;;;48.67;28.38;;;;;;;7.65;42.01;97090.91;4919565;29;20026;-70
2022/03/19 07:35:14;;;;;;;45.42;27.50;;;;;;;7.58;41.22;97114.09;4936713;29;20066;-70
2022/03/19 07:37:41;;;;;;;39.88;25.48;;;;;;;7.44;41.25;97081.78;4936797;29;20441;-70
2022/03/19 07:40:08;;;;;;;44.30;26.98;;;;;;;7.71;40.20;97094.47;4936262;29;20178;-71
2022/03/19 07:42:34;;;;;;;43.30;26.77;;;;;;;7.70;40.33;97103.47;4936401;29;20024;-69
2022/03/19 07:45:00;;;;;;;42.85;25.05;;;;;;;7.65;40.08;97127.19;4936572;29;20024;-71
2022/03/19 07:47:25;;;;;;;39.60;25.92;;;;;;;7.26;39.69;97053.63;4936788;29;20035;-69
2022/03/19 07:49:51;;;;;;;38.90;24.88;;;;;;;8.12;39.40;97129.63;4936496;29;20028;-71
2022/03/19 07:52:16;;;;;;;40.95;24.98;;;;;;;7.86;38.60;97093.94;4936095;29;20063;-72
2022/03/19 07:54:42;;;;;;;39.58;24.42;;;;;;;7.18;39.86;97079.69;4935624;29;20114;-74
2022/03/19 07:57:09;;;;;;;40.22;25.50;;;;;;;8.48;38.80;97123.09;4936882;29;20024;-70
2022/03/19 07:59:35;;;;;;;39.90;24.52;;;;;;;7.93;38.75;97090.06;4936064;29;20031;-67
2022/03/19 08:02:00;;;;;;;37.70;22.58;;;;;;;7.72;38.29;97096.06;4936239;29;20062;-68
2022/03/19 08:04:26;;;;;;;38.88;23.92;;;;;;;8.14;37.46;97071.88;4936312;29;20441;-68
2022/03/19 08:06:55;;;;;;;33.60;23.05;;;;;;;7.85;37.53;97097.63;4918249;29;20032;-69
2022/03/19 08:09:24;;;;;;;38.92;24.38;;;;;;;7.56;38.52;97079.09;4915692;29;20028;-69
2022/03/19 08:11:51;;;;;;;36.53;22.65;;;;;;;7.53;38.01;97075.09;4916987;29;20390;-70
2022/03/19 08:14:18;;;;;;;33.75;22.38;;;;;;;8.13;37.79;97112.66;4899849;29;20462;-69
2022/03/19 08:16:45;;;;;;;35.70;23.70;;;;;;;8.10;37.55;97076.06;4917121;29;20465;-70
2022/03/19 08:19:13;;;;;;;37.78;23.67;;;;;;;8.26;38.21;97093.81;4915660;29;20040;-69
2022/03/19 08:21:40;;;;;;;36.10;22.88;;;;;;;7.80;37.41;97040.06;4916962;29;20632;-70
2022/03/19 08:24:06;;;;;;;32.55;22.23;;;;;;;8.11;36.88;97049.31;4933937;29;20047;-70
2022/03/19 08:26:35;;;;;;;36.50;24.58;;;;;;;8.98;36.18;97085.88;4935489;29;20477;-70
2022/03/19 08:29:02;;;;;;;36.92;23.35;;;;;;;8.72;36.61;97074.13;4935671;29;20525;-70
2022/03/19 08:31:28;;;;;;;39.75;23.63;;;;;;;8.52;37.13;97087.88;4918515;29;20067;-69
2022/03/19 08:33:55;;;;;;;34.42;22.85;;;;;;;8.69;36.51;97032.13;4918639;29;20031;-70
2022/03/19 08:36:20;;;;;;;32.50;20.92;;;;;;;8.42;37.32;97071.03;4934712;29;20377;-70
2022/03/19 08:41:30;;;;;;;33.95;22.30;;;;;;;9.25;35.41;97072.66;4935826;29;20113;-69
2022/03/19 08:43:55;;;;;;;30.13;21.48;;;;;;;9.44;34.66;97014.72;4918678;29;20091;-69
2022/03/19 08:46:20;;;;;;;35.40;21.35;;;;;;;9.50;34.90;97074.00;4935425;29;20032;-69
2022/03/19 08:48:46;;;;;;;28.30;20.67;;;;;;;9.77;36.02;97042.13;4935255;29;20028;-70
2022/03/19 08:53:55;;;;;;;28.48;21.25;;;;;;;10.64;35.17;97052.38;4934697;29;20130;-70
2022/03/19 08:56:20;;;;;;;29.92;20.95;;;;;;;10.79;35.27;97022.41;4934905;29;20071;-71
2022/03/19 08:58:46;;;;;;;38.13;22.00;;;;;;;11.18;32.88;97032.69;4935646;29;20051;-71
2022/03/19 09:01:12;;;;;;;27.73;21.27;;;;;;;11.53;31.98;97055.19;4935554;29;20111;-71
2022/03/19 09:03:37;;;;;;;27.00;21.45;;;;;;;11.60;31.63;97037.06;4934053;29;20448;-71
2022/03/19 09:06:02;;;;;;;29.48;21.77;;;;;;;11.58;31.42;97028.53;4934682;29;20118;-70
2022/03/19 09:08:28;;;;;;;27.02;20.75;;;;;;;11.58;32.03;97034.66;4932705;29;20433;-70
2022/03/19 09:10:53;;;;;;;29.67;20.52;;;;;;;11.77;30.44;97015.50;4934968;29;20485;-71
2022/03/19 09:13:19;;;;;;;29.25;19.92;;;;;;;11.99;30.00;97040.09;4935319;29;20035;-67
2022/03/19 09:15:44;;;;;;;28.50;20.60;;;;;;;10.87;30.74;97007.81;4935120;29;20031;-68
2022/03/19 09:18:10;;;;;;;30.00;20.88;;;;;;;10.43;31.26;96999.31;4933660;29;20031;-67
2022/03/19 09:20:35;;;;;;;30.65;22.02;;;;;;;10.76;30.92;97016.81;4934455;29;20031;-68
2022/03/19 09:23:02;;;;;;;31.85;21.63;;;;;;;10.63;31.44;97013.53;4934464;29;20163;-69
2022/03/19 09:25:28;;;;;;;31.40;22.38;;;;;;;10.24;32.42;97010.38;4934911;29;20043;-66
2022/03/19 09:27:53;;;;;;;35.83;24.23;;;;;;;10.18;32.71;96989.28;4934982;29;20027;-68
2022/03/19 09:30:18;;;;;;;35.72;24.08;;;;;;;10.58;32.30;96986.09;4934690;29;20042;-70
2022/03/19 09:32:44;;;;;;;35.10;24.30;;;;;;;10.45;32.97;96990.03;4934715;29;20078;-68
2022/03/19 09:35:09;;;;;;;35.35;23.98;;;;;;;10.77;32.79;96987.25;4934806;29;20505;-68
2022/03/19 09:37:35;;;;;;;38.35;25.27;;;;;;;10.94;32.47;96950.56;4932663;29;20031;-67
2022/03/19 09:40:01;;;;;;;33.00;23.52;;;;;;;10.74;32.02;96963.00;4934226;29;20432;-69
2022/03/19 09:42:28;;;;;;;31.90;23.55;;;;;;;10.92;31.72;96967.88;4934424;29;20078;-69
2022/03/19 09:44:53;;;;;;;33.05;23.65;;;;;;;10.10;31.85;96954.13;4917267;29;20034;-70
2022/03/19 09:47:19;;;;;;;30.85;22.15;;;;;;;10.43;32.47;96943.44;4917380;29;20039;-71
2022/03/19 09:49:44;;;;;;;27.98;21.65;;;;;;;10.62;32.76;96995.16;4932989;29;20465;-73
2022/03/19 09:52:12;;;;;;;31.15;23.08;;;;;;;10.15;32.70;96958.69;4934183;29;20032;-72
2022/03/19 09:54:38;;;;;;;33.38;22.95;;;;;;;10.91;31.41;96971.63;4933737;29;20034;-69
2022/03/19 09:57:03;;;;;;;33.83;22.35;;;;;;;10.84;32.13;96984.34;4917259;29;20024;-72
2022/03/19 09:59:29;;;;;;;32.13;22.15;;;;;;;10.22;32.05;96935.31;4933829;29;20032;-73
2022/03/19 10:01:55;;;;;;;34.08;22.33;;;;;;;10.65;32.25;96981.34;4934278;29;20031;-73
2022/03/19 10:04:21;;;;;;;30.50;22.27;;;;;;;10.91;31.58;96961.78;4933045;29;20032;-73
2022/03/19 10:09:47;;;;;;;33.28;23.42;;;;;;;11.56;32.28;96962.16;4933415;29;20038;-72
2022/03/19 10:12:23;;;;;;;29.58;21.42;;;;;;;11.36;30.79;96959.47;4917140;29;20020;-72
2022/03/19 10:14:51;;;;;;;29.73;22.67;;;;;;;11.73;30.50;96950.47;4932992;29;20027;-72
2022/03/19 10:17:26;;;;;;;33.58;22.55;;;;;;;12.24;30.17;96951.25;4937939;29;20028;-71
2022/03/19 10:19:52;;;;;;;31.35;21.55;;;;;;;11.65;29.58;96941.91;4938004;29;20032;-72
2022/03/19 10:22:25;;;;;;;33.20;22.02;;;;;;;11.61;29.68;96958.69;4936761;29;20366;-72
2022/03/19 10:24:56;;;;;;;30.25;21.60;;;;;;;11.64;29.33;96942.19;4937328;29;20500;-72
2022/03/19 10:27:21;;;;;;;27.25;20.13;;;;;;;11.66;29.35;96926.72;4938090;29;20063;-71
2022/03/19 10:30:01;;;;;;;27.67;19.20;;;;;;;11.19;28.71;96901.91;4937458;29;20122;-72
2022/03/19 10:32:28;;;;;;;27.15;20.55;;;;;;;11.78;28.75;96910.47;4937946;29;20044;-72
2022/03/19 10:34:54;;;;;;;25.52;19.60;;;;;;;10.79;30.04;96891.97;4938069;29;20036;-72
2022/03/19 10:37:34;;;;;;;29.58;20.08;;;;;;;11.32;29.53;96924.59;4920730;29;20028;-72
2022/03/19 10:40:00;;;;;;;28.05;19.70;;;;;;;11.66;29.12;96894.72;4937230;29;20031;-72
2022/03/19 10:42:25;;;;;;;22.83;17.73;;;;;;;11.38;28.25;96878.22;4937565;29;20404;-73
2022/03/19 10:44:52;;;;;;;22.20;18.63;;;;;;;10.62;28.47;96859.44;4920529;29;20737;-73
2022/03/19 10:47:22;;;;;;;24.98;17.50;;;;;;;10.40;28.77;96827.72;4920557;29;20036;-72
2022/03/19 10:49:47;;;;;;;25.17;17.67;;;;;;;10.70;29.16;96901.53;4937592;29;20027;-72
2022/03/19 10:52:17;;;;;;;25.67;19.05;;;;;;;10.34;29.04;96786.22;4937713;29;20027;-71
2022/03/19 10:54:43;;;;;;;23.73;18.25;;;;;;;10.64;28.58;96778.28;4935882;29;20035;-68
2022/03/19 10:57:09;;;;;;;25.13;17.33;;;;;;;10.12;28.27;96789.03;4937582;29;20028;-67
2022/03/19 10:59:34;;;;;;;24.83;17.80;;;;;;;10.46;28.87;96820.56;4937176;29;20491;-70
2022/03/19 11:02:01;;;;;;;21.23;17.17;;;;;;;11.34;28.19;96881.69;4935946;29;20034;-66
2022/03/19 11:04:30;;;;;;;22.40;16.83;;;;;;;10.89;28.14;96878.69;4937351;29;20032;-69
2022/03/19 11:06:59;;;;;;;22.92;17.20;;;;;;;11.71;27.03;96850.22;4937185;29;20043;-66
2022/03/19 11:09:27;;;;;;;19.95;16.88;;;;;;;12.05;26.52;96870.19;4936022;29;20027;-69
2022/03/19 11:11:57;;;;;;;23.77;16.85;;;;;;;11.91;26.84;96869.94;4936970;29;20035;-68
2022/03/19 11:14:26;;;;;;;23.17;16.15;;;;;;;11.68;26.61;96852.63;4937210;29;20032;-68
2022/03/19 11:17:24;;;;;;;20.25;16.48;;;;;;;12.21;25.68;96851.19;4920144;29;20107;-70
2022/03/19 11:19:52;;;;;;;21.10;16.95;;;;;;;11.80;26.36;96831.00;4937114;29;20043;-71
2022/03/19 11:22:18;;;;;;;20.00;17.00;;;;;;;11.35;26.91;96817.47;4935863;29;20521;-70
2022/03/19 11:24:52;;;;;;;22.27;17.55;;;;;;;11.19;26.25;96754.63;4936859;29;20040;-73
2022/03/19 11:27:19;;;;;;;21.98;17.25;;;;;;;12.09;26.49;96810.69;4936667;29;20034;-72
2022/03/19 11:29:45;;;;;;;19.60;17.52;;;;;;;11.63;25.32;96711.38;4936618;29;20058;-72
2022/03/19 11:32:21;;;;;;;18.88;15.70;;;;;;;12.28;25.25;96808.22;4936237;29;20067;-73